createdAt,value
2017-11-15T00:00:58.488Z,20.55
2017-11-15T00:03:26.285Z,17.83
2017-11-15T00:05:54.831Z,18.50
2017-11-15T00:08:22.581Z,19.05
2017-11-15T00:10:50.372Z,18.95
2017-11-15T00:13:18.131Z,18.58
2017-11-15T00:15:45.978Z,18.42
2017-11-15T00:18:13.869Z,17.00
2017-11-15T00:20:42.388Z,18.23
2017-11-15T00:23:10.141Z,16.55
2017-11-15T00:25:37.947Z,17.00
2017-11-15T00:28:05.916Z,18.60
2017-11-15T00:30:33.667Z,16.45
2017-11-15T00:33:01.545Z,24.70
2017-11-15T00:35:29.314Z,26.02
2017-11-15T00:37:57.069Z,21.40
2017-11-15T00:40:24.859Z,25.10
2017-11-15T00:42:53.402Z,20.58
2017-11-15T00:45:21.152Z,21.87
2017-11-15T00:47:48.996Z,21.30
2017-11-15T00:50:16.762Z,21.45
2017-11-15T00:52:44.511Z,17.35
2017-11-15T00:55:12.324Z,19.45
2017-11-15T00:57:40.077Z,17.45
2017-11-15T01:00:07.832Z,16.62
2017-11-15T01:02:35.621Z,19.17
2017-11-15T01:05:03.466Z,14.05
2017-11-15T01:07:31.227Z,18.48
2017-11-15T01:09:59.089Z,19.92
2017-11-15T01:12:26.836Z,19.00
2017-11-15T01:14:54.715Z,17.50
2017-11-15T01:17:22.779Z,19.00
2017-11-15T01:19:50.646Z,17.02
2017-11-15T01:22:18.483Z,19.95
2017-11-15T01:24:46.272Z,16.35
2017-11-15T01:27:14.045Z,16.70
2017-11-15T01:29:41.804Z,25.83
2017-11-15T01:32:09.595Z,16.95
2017-11-15T01:34:38.118Z,15.32
2017-11-15T01:37:05.884Z,16.90
2017-11-15T01:39:34.896Z,15.82
2017-11-15T01:42:02.650Z,14.38
2017-11-15T01:44:30.414Z,17.95
2017-11-15T01:46:58.211Z,13.20
2017-11-15T01:49:26.729Z,12.32
2017-11-15T01:51:54.481Z,11.88
2017-11-15T01:54:22.382Z,12.68
2017-11-15T01:56:50.141Z,12.05
2017-11-15T01:59:17.920Z,13.00
2017-11-15T02:01:45.719Z,13.38
2017-11-15T02:04:13.528Z,10.82
2017-11-15T02:06:41.392Z,13.62
2017-11-15T02:09:09.195Z,12.70
2017-11-15T02:11:37.711Z,11.20
2017-11-15T02:14:05.463Z,11.23
2017-11-15T02:16:33.258Z,10.23
2017-11-15T02:19:01.776Z,11.82
2017-11-15T02:21:30.331Z,12.50
2017-11-15T02:23:58.371Z,10.20
2017-11-15T02:26:26.455Z,11.60
2017-11-15T02:28:54.217Z,11.90
2017-11-15T02:31:22.032Z,11.07
2017-11-15T02:33:49.790Z,10.02
2017-11-15T02:36:17.583Z,12.37
2017-11-15T02:38:45.390Z,10.48
2017-11-15T02:41:13.159Z,9.40
2017-11-15T02:43:40.904Z,9.48
2017-11-15T02:46:09.058Z,9.15
2017-11-15T02:48:37.195Z,10.27
2017-11-15T02:51:04.978Z,10.70
2017-11-15T02:53:32.768Z,10.13
2017-11-15T02:56:00.528Z,11.57
2017-11-15T02:58:28.306Z,11.18
2017-11-15T03:00:56.888Z,11.43
2017-11-15T03:03:25.418Z,10.70
2017-11-15T03:05:53.304Z,9.80
2017-11-15T03:08:21.104Z,9.15
2017-11-15T03:10:49.616Z,9.25
2017-11-15T03:13:17.366Z,9.55
2017-11-15T03:15:45.184Z,10.45
2017-11-15T03:18:13.711Z,9.65
2017-11-15T03:20:41.491Z,10.15
2017-11-15T03:23:09.293Z,9.77
2017-11-15T03:25:37.136Z,9.10
2017-11-15T03:28:05.655Z,9.57
2017-11-15T03:30:34.227Z,9.38
2017-11-15T03:33:02.751Z,8.73
2017-11-15T03:35:30.498Z,9.68
2017-11-15T03:37:58.298Z,10.70
2017-11-15T03:40:26.051Z,12.07
2017-11-15T03:42:53.803Z,11.70
2017-11-15T03:45:21.591Z,10.60
2017-11-15T03:47:49.342Z,12.80
2017-11-15T03:50:17.209Z,12.37
2017-11-15T03:52:45.016Z,10.38
2017-11-15T03:55:12.768Z,10.88
2017-11-15T03:57:41.288Z,11.38
2017-11-15T04:00:09.076Z,11.15
2017-11-15T04:02:36.828Z,13.15
2017-11-15T04:05:04.580Z,12.77
2017-11-15T04:07:32.367Z,13.32
2017-11-15T04:10:00.144Z,13.98
2017-11-15T04:12:28.680Z,12.50
2017-11-15T04:14:56.462Z,12.98
2017-11-15T04:17:24.215Z,13.57
2017-11-15T04:19:51.977Z,11.70
2017-11-15T04:22:19.765Z,13.18
2017-11-15T04:24:47.530Z,12.57
2017-11-15T04:27:15.285Z,13.95
2017-11-15T04:29:43.076Z,15.10
2017-11-15T04:32:10.825Z,17.50
2017-11-15T04:34:39.408Z,13.90
2017-11-15T04:37:07.956Z,14.10
2017-11-15T04:39:35.713Z,15.82
2017-11-15T04:42:03.463Z,16.85
2017-11-15T04:44:31.256Z,15.35
2017-11-15T04:46:59.016Z,13.70
2017-11-15T04:49:26.780Z,14.57
2017-11-15T04:51:55.367Z,12.30
2017-11-15T04:54:23.125Z,13.55
2017-11-15T04:56:51.642Z,13.95
2017-11-15T04:59:19.426Z,13.57
2017-11-15T05:01:47.175Z,12.85
2017-11-15T05:04:14.930Z,12.00
2017-11-15T05:06:42.722Z,13.65
2017-11-15T05:09:10.475Z,14.57
2017-11-15T05:11:38.249Z,14.77
2017-11-15T05:14:06.065Z,15.63
2017-11-15T05:16:33.879Z,12.27
2017-11-15T05:19:01.648Z,12.48
2017-11-15T05:21:29.472Z,12.57
2017-11-15T05:23:57.231Z,12.57
2017-11-15T05:26:24.978Z,13.13
2017-11-15T05:28:52.772Z,13.00
2017-11-15T05:31:20.515Z,12.45
2017-11-15T05:33:48.265Z,12.70
2017-11-15T05:36:16.054Z,13.23
2017-11-15T05:38:43.800Z,14.50
2017-11-15T05:41:11.547Z,13.15
2017-11-15T05:43:39.336Z,12.15
2017-11-15T05:46:07.121Z,16.12
2017-11-15T05:48:34.885Z,12.93
2017-11-15T05:51:03.438Z,16.33
2017-11-15T05:53:31.197Z,14.45
2017-11-15T05:55:58.958Z,16.17
2017-11-15T05:58:26.852Z,15.20
2017-11-15T06:00:54.715Z,18.35
2017-11-15T06:03:22.455Z,16.98
2017-11-15T06:05:50.237Z,16.65
2017-11-15T06:08:17.988Z,15.10
2017-11-15T06:10:45.737Z,17.42
2017-11-15T06:13:14.349Z,18.42
2017-11-15T06:15:42.311Z,16.65
2017-11-15T06:18:10.059Z,15.80
2017-11-15T06:20:37.851Z,15.38
2017-11-15T06:23:05.601Z,17.37
2017-11-15T06:25:33.436Z,18.20
2017-11-15T06:28:01.340Z,21.20
2017-11-15T06:30:29.215Z,19.55
2017-11-15T06:32:57.845Z,20.50
2017-11-15T06:35:25.571Z,21.23
2017-11-15T06:37:54.095Z,21.05
2017-11-15T06:40:21.975Z,22.45
2017-11-15T06:42:49.782Z,23.95
2017-11-15T06:45:17.525Z,21.33
2017-11-15T06:47:46.078Z,23.85
2017-11-15T06:50:13.867Z,22.65
2017-11-15T06:52:42.388Z,24.63
2017-11-15T06:55:10.129Z,29.25
2017-11-15T06:57:37.945Z,25.45
2017-11-15T07:00:05.693Z,25.05
2017-11-15T07:02:33.443Z,24.33
2017-11-15T07:05:01.233Z,24.90
2017-11-15T07:07:28.984Z,24.75
2017-11-15T07:09:56.727Z,25.45
2017-11-15T07:12:24.519Z,22.05
2017-11-15T07:14:52.271Z,22.48
2017-11-15T07:17:20.035Z,22.80
2017-11-15T07:19:47.825Z,22.48
2017-11-15T07:22:16.336Z,21.17
2017-11-15T07:24:44.083Z,22.42
2017-11-15T07:27:12.679Z,20.58
2017-11-15T07:29:40.452Z,22.25
2017-11-15T07:32:08.206Z,21.52
2017-11-15T07:34:36.007Z,22.35
2017-11-15T07:37:03.754Z,19.85
2017-11-15T07:39:31.503Z,20.20
2017-11-15T07:41:59.287Z,19.33
2017-11-15T07:44:27.156Z,19.50
2017-11-15T07:46:54.907Z,18.70
2017-11-15T07:49:25.203Z,17.77
2017-11-15T07:51:55.048Z,17.67
2017-11-15T07:54:23.109Z,19.20
2017-11-15T07:56:51.070Z,19.12
2017-11-15T07:59:28.493Z,19.73
2017-11-15T08:01:56.388Z,19.30
2017-11-15T08:04:24.305Z,18.30
2017-11-15T08:06:52.170Z,19.67
2017-11-15T08:09:19.957Z,21.02
2017-11-15T08:11:47.775Z,18.87
2017-11-15T08:14:15.655Z,20.00
2017-11-15T08:16:43.473Z,19.87
2017-11-15T08:19:11.247Z,20.40
2017-11-15T08:21:38.992Z,16.98
2017-11-15T08:24:06.789Z,19.30
2017-11-15T08:26:35.305Z,20.37
2017-11-15T08:29:03.107Z,19.23
2017-11-15T08:31:30.887Z,30.10
2017-11-15T08:33:58.652Z,22.60
2017-11-15T08:36:26.398Z,23.65
2017-11-15T08:38:54.183Z,24.50
2017-11-15T08:41:21.932Z,31.60
2017-11-15T08:43:49.706Z,28.33
2017-11-15T08:46:17.532Z,23.65
2017-11-15T08:48:45.290Z,20.12
2017-11-15T08:51:13.038Z,19.77
2017-11-15T08:53:41.685Z,19.30
2017-11-15T08:56:09.431Z,20.30
2017-11-15T08:58:37.183Z,23.60
2017-11-15T09:01:05.020Z,20.77
2017-11-15T09:03:32.770Z,19.77
2017-11-15T09:06:01.287Z,20.58
2017-11-15T09:08:29.074Z,21.17
2017-11-15T09:10:57.584Z,19.40
2017-11-15T09:13:26.133Z,22.00
2017-11-15T09:15:53.921Z,20.55
2017-11-15T09:18:22.432Z,20.17
2017-11-15T09:20:50.188Z,19.00
2017-11-15T09:23:17.972Z,16.23
2017-11-15T09:25:46.543Z,16.35
2017-11-15T09:28:14.299Z,16.80
2017-11-15T09:30:42.103Z,24.23
2017-11-15T09:33:09.867Z,18.37
2017-11-15T09:35:37.729Z,17.70
2017-11-15T09:38:05.523Z,18.87
2017-11-15T09:40:34.047Z,17.87
2017-11-15T09:43:01.803Z,18.65
2017-11-15T09:45:29.604Z,16.70
2017-11-15T09:47:57.359Z,17.95
2017-11-15T09:50:26.915Z,17.40
2017-11-15T09:52:54.699Z,17.20
2017-11-15T09:55:23.302Z,17.67
2017-11-15T09:57:51.063Z,17.83
2017-11-15T10:00:18.856Z,17.30
2017-11-15T10:02:47.372Z,17.27
2017-11-15T10:05:15.174Z,16.65
2017-11-15T10:07:42.967Z,17.45
2017-11-15T10:10:11.631Z,16.12
2017-11-15T10:12:39.381Z,16.48
2017-11-15T10:15:07.239Z,16.00
2017-11-15T10:17:35.820Z,16.70
2017-11-15T10:20:03.684Z,17.17
2017-11-15T10:22:31.484Z,17.10
2017-11-15T10:25:00.005Z,16.62
2017-11-15T10:27:27.756Z,15.27
2017-11-15T10:29:55.548Z,17.05
2017-11-15T10:32:23.387Z,15.95
2017-11-15T10:34:51.174Z,17.90
2017-11-15T10:37:18.964Z,17.50
2017-11-15T10:39:47.487Z,17.12
2017-11-15T10:42:16.139Z,18.60
2017-11-15T10:44:44.692Z,17.73
2017-11-15T10:47:12.440Z,15.75
2017-11-15T10:49:40.190Z,16.95
2017-11-15T10:52:07.978Z,17.20
2017-11-15T10:54:35.740Z,14.45
2017-11-15T10:57:03.503Z,13.62
2017-11-15T10:59:31.314Z,13.38
2017-11-15T11:01:59.081Z,14.45
2017-11-15T11:04:26.849Z,13.00
2017-11-15T11:06:54.653Z,15.35
2017-11-15T11:09:23.201Z,13.62
2017-11-15T11:11:51.084Z,14.68
2017-11-15T11:14:18.876Z,14.18
2017-11-15T11:16:47.421Z,15.27
2017-11-15T11:19:15.184Z,16.15
2017-11-15T11:21:42.971Z,15.52
2017-11-15T11:24:11.526Z,14.40
2017-11-15T11:26:39.390Z,13.40
2017-11-15T11:29:07.258Z,14.38
2017-11-15T11:31:35.046Z,13.27
2017-11-15T11:34:02.830Z,12.25
2017-11-15T11:36:30.622Z,14.50
2017-11-15T11:39:00.024Z,13.27
2017-11-15T11:41:27.905Z,12.50
2017-11-15T11:43:55.768Z,14.30
2017-11-15T11:46:23.525Z,12.98
2017-11-15T11:48:51.275Z,13.05
2017-11-15T11:51:19.064Z,12.90
2017-11-15T11:53:46.822Z,12.70
2017-11-15T11:56:14.575Z,13.77
2017-11-15T11:58:42.363Z,13.05
2017-11-15T12:01:10.139Z,13.60
2017-11-15T12:03:38.661Z,11.80
2017-11-15T12:06:06.543Z,11.65
2017-11-15T12:08:34.304Z,16.95
2017-11-15T12:11:02.056Z,13.73
2017-11-15T12:13:29.866Z,14.63
2017-11-15T12:15:57.627Z,12.52
2017-11-15T12:18:26.146Z,13.85
2017-11-15T12:20:53.946Z,15.60
2017-11-15T12:23:21.798Z,14.02
2017-11-15T12:25:49.661Z,13.50
2017-11-15T12:28:17.525Z,14.02
2017-11-15T12:30:45.296Z,16.87
2017-11-15T12:33:13.047Z,16.95
2017-11-15T12:35:40.850Z,15.80
2017-11-15T12:38:09.381Z,15.65
2017-11-15T12:40:37.136Z,13.57
2017-11-15T12:43:04.935Z,13.20
2017-11-15T12:45:32.786Z,12.80
2017-11-15T12:48:00.642Z,12.55
2017-11-15T12:50:28.506Z,14.25
2017-11-15T12:52:56.255Z,13.65
2017-11-15T12:55:24.013Z,15.35
2017-11-15T12:57:51.799Z,13.82
2017-11-15T13:00:19.654Z,47.10
2017-11-15T13:02:47.408Z,30.10
2017-11-15T13:05:15.200Z,16.15
2017-11-15T13:07:42.967Z,15.23
2017-11-15T13:10:11.621Z,17.08
2017-11-15T13:12:39.410Z,15.63
2017-11-15T13:15:08.072Z,14.95
2017-11-15T13:17:35.934Z,12.95
2017-11-15T13:20:03.732Z,15.82
2017-11-15T13:22:32.256Z,31.70
2017-11-15T13:25:00.024Z,17.30
2017-11-15T13:27:27.822Z,13.40
2017-11-15T13:29:56.357Z,13.00
2017-11-15T13:32:24.135Z,13.57
2017-11-15T13:34:52.004Z,15.02
2017-11-15T13:37:19.773Z,12.35
2017-11-15T13:39:47.526Z,14.10
2017-11-15T13:42:15.390Z,14.27
2017-11-15T13:44:43.255Z,14.80
2017-11-15T13:47:11.118Z,15.95
2017-11-15T13:49:38.904Z,13.30
2017-11-15T13:52:06.660Z,13.62
2017-11-15T13:54:34.417Z,13.13
2017-11-15T13:57:02.219Z,13.75
2017-11-15T13:59:29.979Z,14.57
2017-11-15T14:01:57.735Z,14.98
2017-11-15T14:04:25.528Z,13.40
2017-11-15T14:06:53.283Z,14.48
2017-11-15T14:09:21.038Z,17.00
2017-11-15T14:11:48.827Z,15.27
2017-11-15T14:14:16.699Z,16.05
2017-11-15T14:16:44.448Z,18.10
2017-11-15T14:19:12.239Z,16.87
2017-11-15T14:21:40.804Z,19.80
2017-11-15T14:24:08.556Z,20.67
2017-11-15T14:26:36.429Z,19.08
2017-11-15T14:29:04.296Z,20.00
2017-11-15T14:31:32.051Z,21.40
2017-11-15T14:33:59.853Z,21.37
2017-11-15T14:36:28.368Z,20.75
2017-11-15T14:38:56.129Z,21.00
2017-11-15T14:41:24.023Z,21.55
2017-11-15T14:43:51.782Z,23.00
2017-11-15T14:46:19.647Z,19.85
2017-11-15T14:48:47.437Z,23.02
2017-11-15T14:51:15.379Z,22.73
2017-11-15T14:53:43.128Z,25.83
2017-11-15T14:56:10.914Z,25.27
2017-11-15T14:58:38.659Z,25.52
2017-11-15T15:01:06.399Z,25.45
2017-11-15T15:03:34.190Z,25.27
2017-11-15T15:06:01.946Z,21.75
2017-11-15T15:08:29.810Z,25.02
2017-11-15T15:10:57.595Z,26.90
2017-11-15T15:13:25.343Z,25.50
2017-11-15T15:15:53.095Z,21.52
2017-11-15T15:18:20.959Z,23.77
2017-11-15T15:20:48.726Z,25.73
2017-11-15T15:23:16.495Z,22.77
2017-11-15T15:25:44.345Z,24.73
2017-11-15T15:28:12.184Z,25.33
2017-11-15T15:30:39.937Z,27.62
2017-11-15T15:33:07.719Z,30.15
2017-11-15T15:35:35.673Z,32.40
2017-11-15T15:38:04.235Z,29.67
2017-11-15T15:40:32.036Z,37.40
2017-11-15T15:42:59.783Z,31.75
2017-11-15T15:45:27.535Z,31.08
2017-11-15T15:47:55.343Z,32.60
2017-11-15T15:50:23.098Z,25.55
2017-11-15T15:52:50.852Z,24.42
2017-11-15T15:55:18.716Z,23.90
2017-11-15T15:57:46.581Z,29.02
2017-11-15T16:00:14.440Z,30.12
2017-11-15T16:02:42.228Z,29.50
2017-11-15T16:05:10.744Z,28.45
2017-11-15T16:07:38.491Z,27.52
2017-11-15T16:10:06.305Z,28.30
2017-11-15T16:12:34.054Z,25.37
2017-11-15T16:15:01.932Z,25.27
2017-11-15T16:17:29.797Z,24.83
2017-11-15T16:19:57.658Z,27.95
2017-11-15T16:22:25.424Z,27.27
2017-11-15T16:24:53.318Z,34.33
2017-11-15T16:27:21.998Z,34.20
2017-11-15T16:29:50.550Z,36.63
2017-11-15T16:32:18.423Z,33.33
2017-11-15T16:34:46.278Z,35.95
2017-11-15T16:37:14.167Z,29.05
2017-11-15T16:39:42.824Z,28.70
2017-11-15T16:42:11.509Z,37.35
2017-11-15T16:44:39.579Z,33.63
2017-11-15T16:47:07.440Z,32.20
2017-11-15T16:49:35.304Z,33.08
2017-11-15T16:52:03.168Z,34.80
2017-11-15T16:54:31.031Z,36.40
2017-11-15T16:56:58.778Z,36.53
2017-11-15T16:59:27.288Z,32.85
2017-11-15T17:01:55.084Z,48.80
2017-11-15T17:04:22.847Z,70.05
2017-11-15T17:06:50.663Z,60.30
2017-11-15T17:09:18.447Z,53.85
2017-11-15T17:11:46.585Z,50.50
2017-11-15T17:14:14.353Z,49.45
2017-11-15T17:16:42.220Z,47.80
2017-11-15T17:19:09.962Z,48.00
2017-11-15T17:21:37.931Z,50.00
2017-11-15T17:24:05.719Z,51.60
2017-11-15T17:26:33.472Z,49.78
2017-11-15T17:29:01.231Z,49.65
2017-11-15T17:31:29.020Z,47.80
2017-11-15T17:33:57.534Z,50.85
2017-11-15T17:36:25.335Z,46.40
2017-11-15T17:38:53.127Z,50.90
2017-11-15T17:41:21.648Z,51.88
2017-11-15T17:43:49.440Z,52.60
2017-11-15T17:46:17.231Z,51.67
2017-11-15T17:48:45.792Z,49.05
2017-11-15T17:51:13.649Z,53.10
2017-11-15T17:53:41.613Z,50.63
2017-11-15T17:56:09.578Z,45.22
2017-11-15T17:58:37.446Z,45.72
2017-11-15T18:01:05.510Z,46.40
2017-11-15T18:03:34.400Z,48.53
2017-11-15T18:06:02.982Z,48.35
2017-11-15T18:08:30.951Z,48.58
2017-11-15T18:10:59.739Z,43.95
2017-11-15T18:13:27.595Z,45.42
2017-11-15T18:15:55.460Z,42.60
2017-11-15T18:18:23.324Z,46.05
2017-11-15T18:20:51.190Z,43.40
2017-11-15T18:23:19.155Z,42.33
2017-11-15T18:25:47.837Z,40.50
2017-11-15T18:28:15.804Z,41.22
2017-11-15T18:30:43.670Z,39.33
2017-11-15T18:33:11.531Z,39.13
2017-11-15T18:35:39.274Z,44.42
2017-11-15T18:38:07.142Z,42.97
2017-11-15T18:40:35.022Z,44.58
2017-11-15T18:43:03.571Z,41.65
2017-11-15T18:45:31.359Z,44.30
2017-11-15T18:47:59.124Z,42.47
2017-11-15T18:50:26.871Z,44.28
2017-11-15T18:52:54.658Z,40.88
2017-11-15T18:55:22.420Z,43.15
2017-11-15T18:57:50.328Z,46.55
2017-11-15T19:00:18.139Z,45.42
2017-11-15T19:02:45.971Z,43.63
2017-11-15T19:05:13.728Z,47.08
2017-11-15T19:07:41.527Z,46.60
2017-11-15T19:10:09.492Z,49.47
2017-11-15T19:12:37.357Z,48.42
2017-11-15T19:15:05.222Z,49.42
2017-11-15T19:17:32.964Z,44.53
2017-11-15T19:20:00.711Z,49.65
2017-11-15T19:22:28.508Z,50.03
2017-11-15T19:24:56.256Z,45.55
2017-11-15T19:27:24.008Z,42.20
2017-11-15T19:29:51.815Z,35.65
2017-11-15T19:32:20.336Z,39.85
2017-11-15T19:34:48.127Z,37.13
2017-11-15T19:37:16.688Z,38.55
2017-11-15T19:39:44.592Z,37.53
2017-11-15T19:42:12.439Z,37.95
2017-11-15T19:44:40.222Z,37.65
2017-11-15T19:47:08.172Z,38.97
2017-11-15T19:49:36.238Z,38.70
2017-11-15T19:52:04.137Z,41.30
2017-11-15T19:54:31.912Z,43.17
2017-11-15T19:56:59.660Z,42.90
2017-11-15T19:59:28.297Z,43.33
2017-11-15T20:01:56.172Z,44.00
2017-11-15T20:04:23.927Z,45.83
2017-11-15T20:06:51.797Z,44.05
2017-11-15T20:09:20.789Z,43.58
2017-11-15T20:11:48.652Z,42.53
2017-11-15T20:14:16.605Z,42.25
2017-11-15T20:16:44.553Z,43.13
2017-11-15T20:19:12.487Z,43.40
2017-11-15T20:21:41.107Z,41.70
2017-11-15T20:24:09.098Z,46.10
2017-11-15T20:26:37.176Z,47.10
2017-11-15T20:29:05.953Z,40.22
2017-11-15T20:31:33.773Z,39.38
2017-11-15T20:34:01.537Z,36.20
2017-11-15T20:36:29.433Z,38.60
2017-11-15T20:38:57.306Z,38.85
2017-11-15T20:41:25.279Z,39.90
2017-11-15T20:43:53.211Z,40.63
2017-11-15T20:46:21.102Z,38.80
2017-11-15T20:48:48.922Z,40.28
2017-11-15T20:51:17.649Z,38.33
2017-11-15T20:53:46.390Z,39.40
2017-11-15T20:56:14.196Z,40.50
2017-11-15T20:58:42.937Z,38.63
2017-11-15T21:01:10.742Z,38.80
2017-11-15T21:03:38.652Z,41.37
2017-11-15T21:06:07.895Z,45.20
2017-11-15T21:08:35.803Z,39.45
2017-11-15T21:11:04.151Z,43.13
2017-11-15T21:13:31.986Z,44.60
2017-11-15T21:15:59.872Z,43.00
2017-11-15T21:18:27.628Z,42.17
2017-11-15T21:20:55.448Z,41.97
2017-11-15T21:23:23.672Z,40.97
2017-11-15T21:25:51.476Z,41.22
2017-11-15T21:28:19.295Z,40.15
2017-11-15T21:30:47.309Z,39.55
2017-11-15T21:33:16.122Z,37.42
2017-11-15T21:35:46.781Z,43.38
2017-11-15T21:38:16.481Z,41.78
2017-11-15T21:40:44.656Z,41.88
2017-11-15T21:43:16.460Z,39.55
2017-11-15T21:48:27.892Z,42.22
2017-11-15T21:50:55.684Z,42.38
2017-11-15T21:53:23.534Z,42.38
2017-11-15T21:55:51.411Z,42.90
2017-11-15T21:58:19.178Z,39.97
2017-11-15T22:00:47.051Z,41.83
2017-11-15T22:03:15.610Z,38.55
2017-11-15T22:05:43.471Z,42.88
2017-11-15T22:08:11.333Z,42.08
2017-11-15T22:10:39.121Z,42.20
2017-11-15T22:13:06.900Z,42.33
2017-11-15T22:15:35.418Z,40.70
2017-11-15T22:18:03.302Z,40.60
2017-11-15T22:20:31.165Z,42.20
2017-11-15T22:22:58.921Z,40.83
2017-11-15T22:25:26.713Z,39.78
2017-11-15T22:27:57.830Z,41.25
2017-11-15T22:30:26.126Z,40.38
2017-11-15T22:32:53.947Z,41.78
2017-11-15T22:35:21.716Z,42.60
2017-11-15T22:37:49.475Z,40.30
2017-11-15T22:40:17.258Z,43.53
2017-11-15T22:42:45.099Z,40.83
2017-11-15T22:45:12.843Z,45.03
2017-11-15T22:47:42.479Z,44.92
2017-11-15T22:50:11.073Z,44.42
2017-11-15T22:52:39.644Z,42.05
2017-11-15T22:55:07.509Z,43.10
2017-11-15T22:57:35.265Z,46.33
2017-11-15T23:00:03.012Z,44.60
2017-11-15T23:02:30.819Z,42.40
2017-11-15T23:04:59.681Z,45.33
2017-11-15T23:07:29.305Z,43.03
2017-11-15T23:09:57.878Z,45.65
2017-11-15T23:12:25.728Z,50.20
2017-11-15T23:14:53.861Z,48.00
2017-11-15T23:17:21.712Z,50.88
2017-11-15T23:19:49.458Z,45.63
2017-11-15T23:22:18.007Z,46.03
2017-11-15T23:24:45.808Z,47.17
2017-11-15T23:27:14.330Z,46.28
2017-11-15T23:29:42.846Z,45.00
2017-11-15T23:32:10.646Z,43.75
2017-11-15T23:34:38.414Z,45.55
2017-11-15T23:37:06.184Z,48.55
2017-11-15T23:39:33.972Z,49.25
2017-11-15T23:42:01.790Z,47.75
2017-11-15T23:44:29.600Z,50.72
2017-11-15T23:46:57.464Z,49.00
2017-11-15T23:49:25.226Z,50.45
2017-11-15T23:51:53.499Z,49.13
2017-11-15T23:54:21.291Z,53.53
2017-11-15T23:56:49.801Z,50.53
2017-11-15T23:59:17.544Z,50.38
